createdAt,value
2019-02-26T00:00:51.934Z,8.37
2019-02-26T00:01:53.000Z,8.50
2019-02-26T00:02:52.995Z,8.45
2019-02-26T00:03:51.181Z,8.40
2019-02-26T00:04:53.521Z,8.45
2019-02-26T00:05:52.224Z,8.54
2019-02-26T00:06:51.838Z,8.67
2019-02-26T00:07:52.921Z,8.71
2019-02-26T00:08:53.323Z,8.76
2019-02-26T00:09:53.248Z,8.79
2019-02-26T00:10:54.731Z,8.78
2019-02-26T00:11:51.232Z,8.89
2019-02-26T00:12:51.230Z,8.96
2019-02-26T00:13:52.428Z,9.01
2019-02-26T00:14:52.923Z,9.03
2019-02-26T00:15:51.250Z,8.94
2019-02-26T00:16:51.250Z,8.89
2019-02-26T00:17:52.898Z,8.86
2019-02-26T00:18:51.274Z,8.89
2019-02-26T00:19:51.285Z,8.76
2019-02-26T00:20:51.279Z,8.49
2019-02-26T00:21:51.890Z,8.39
2019-02-26T00:22:52.962Z,8.32
2019-02-26T00:23:53.057Z,8.31
2019-02-26T00:24:51.295Z,8.36
2019-02-26T00:25:51.311Z,8.34
2019-02-26T00:26:51.313Z,8.32
2019-02-26T00:27:52.425Z,8.28
2019-02-26T00:28:51.330Z,8.21
2019-02-26T00:29:53.019Z,8.31
2019-02-26T00:30:51.330Z,8.27
2019-02-26T00:31:53.001Z,8.28
2019-02-26T00:32:53.114Z,8.37
2019-02-26T00:33:51.353Z,8.39
2019-02-26T00:34:53.082Z,8.45
2019-02-26T00:35:51.370Z,8.40
2019-02-26T00:36:51.380Z,8.58
2019-02-26T00:37:53.310Z,8.52
2019-02-26T00:38:51.395Z,8.55
2019-02-26T00:39:51.772Z,8.60
2019-02-26T00:40:51.404Z,8.57
2019-02-26T00:41:53.534Z,8.57
2019-02-26T00:42:54.351Z,8.61
2019-02-26T00:43:53.513Z,8.60
2019-02-26T00:44:53.635Z,8.55
2019-02-26T00:45:53.340Z,8.64
2019-02-26T00:46:53.416Z,8.54
2019-02-26T00:47:51.442Z,8.45
2019-02-26T00:48:51.446Z,8.27
2019-02-26T00:49:53.387Z,8.25
2019-02-26T00:50:52.265Z,8.14
2019-02-26T00:51:52.772Z,8.06
2019-02-26T00:52:52.322Z,8.06
2019-02-26T00:53:53.323Z,7.88
2019-02-26T00:54:53.598Z,8.02
2019-02-26T00:55:51.643Z,8.03
2019-02-26T00:56:51.495Z,8.04
2019-02-26T00:57:51.498Z,7.91
2019-02-26T00:58:51.506Z,7.91
2019-02-26T00:59:51.525Z,7.96
2019-02-26T01:00:51.516Z,7.88
2019-02-26T01:01:52.548Z,7.94
2019-02-26T01:02:51.538Z,7.91
2019-02-26T01:03:51.945Z,7.96
2019-02-26T01:04:51.540Z,7.96
2019-02-26T01:05:51.552Z,7.99
2019-02-26T01:06:51.556Z,7.86
2019-02-26T01:07:52.633Z,7.81
2019-02-26T01:08:51.554Z,7.96
2019-02-26T01:09:52.400Z,7.99
2019-02-26T01:10:51.575Z,7.89
2019-02-26T01:11:52.019Z,7.92
2019-02-26T01:12:51.599Z,7.92
2019-02-26T01:13:52.814Z,7.91
2019-02-26T01:14:51.607Z,7.96
2019-02-26T01:15:51.612Z,7.91
2019-02-26T01:16:51.620Z,7.92
2019-02-26T01:17:51.630Z,8.06
2019-02-26T01:18:53.195Z,8.03
2019-02-26T01:19:51.645Z,8.09
2019-02-26T01:20:52.583Z,8.09
2019-02-26T01:21:51.637Z,8.03
2019-02-26T01:22:51.642Z,7.94
2019-02-26T01:23:51.643Z,8.06
2019-02-26T01:24:51.955Z,8.03
2019-02-26T01:25:54.185Z,8.03
2019-02-26T01:27:53.223Z,8.02
2019-02-26T01:28:53.570Z,8.13
2019-02-26T01:29:53.526Z,8.17
2019-02-26T01:30:55.657Z,8.13
2019-02-26T01:31:51.693Z,8.18
2019-02-26T01:32:51.703Z,8.17
2019-02-26T01:33:52.965Z,8.14
2019-02-26T01:34:51.712Z,7.95
2019-02-26T01:35:52.938Z,7.91
2019-02-26T01:36:51.734Z,7.84
2019-02-26T01:37:53.664Z,7.92
2019-02-26T01:38:53.149Z,7.92
2019-02-26T01:39:52.218Z,7.91
2019-02-26T01:40:53.665Z,7.91
2019-02-26T01:41:54.063Z,7.84
2019-02-26T01:42:54.623Z,7.95
2019-02-26T01:43:51.760Z,8.02
2019-02-26T01:45:54.957Z,7.96
2019-02-26T01:46:53.346Z,7.85
2019-02-26T01:47:52.792Z,7.88
2019-02-26T01:48:53.058Z,7.76
2019-02-26T01:49:51.801Z,7.69
2019-02-26T01:50:52.594Z,7.58
2019-02-26T01:51:53.841Z,7.73
2019-02-26T01:52:52.351Z,7.47
2019-02-26T01:53:53.585Z,7.55
2019-02-26T01:54:53.566Z,7.48
2019-02-26T01:55:51.826Z,7.45
2019-02-26T01:56:53.405Z,7.44
2019-02-26T01:57:51.844Z,7.32
2019-02-26T01:58:56.540Z,7.39
2019-02-26T01:59:51.849Z,7.37
2019-02-26T02:00:55.333Z,7.36
2019-02-26T02:01:53.614Z,7.34
2019-02-26T02:02:51.862Z,7.34
2019-02-26T02:03:53.859Z,7.44
2019-02-26T02:04:51.894Z,7.24
2019-02-26T02:05:52.998Z,7.23
2019-02-26T02:06:51.896Z,7.08
2019-02-26T02:07:53.599Z,7.11
2019-02-26T02:08:53.566Z,7.11
2019-02-26T02:09:53.264Z,7.07
2019-02-26T02:10:56.334Z,7.04
2019-02-26T02:11:51.919Z,7.12
2019-02-26T02:12:55.215Z,7.07
2019-02-26T02:13:51.926Z,7.16
2019-02-26T02:14:51.930Z,7.11
2019-02-26T02:15:51.948Z,7.19
2019-02-26T02:16:51.939Z,7.26
2019-02-26T02:17:51.952Z,7.18
2019-02-26T02:18:53.571Z,7.26
2019-02-26T02:19:51.963Z,7.24
2019-02-26T02:20:51.974Z,7.42
2019-02-26T02:21:53.815Z,7.37
2019-02-26T02:22:51.972Z,7.37
2019-02-26T02:23:52.952Z,7.29
2019-02-26T02:24:53.948Z,7.30
2019-02-26T02:25:51.994Z,7.32
2019-02-26T02:26:53.553Z,7.23
2019-02-26T02:27:54.498Z,7.27
2019-02-26T02:28:52.009Z,7.32
2019-02-26T02:29:54.849Z,7.44
2019-02-26T02:30:52.015Z,7.34
2019-02-26T02:31:52.355Z,7.33
2019-02-26T02:32:55.082Z,7.41
2019-02-26T02:33:52.040Z,7.34
2019-02-26T02:34:52.047Z,7.44
2019-02-26T02:35:52.046Z,7.45
2019-02-26T02:36:52.044Z,7.48
2019-02-26T02:37:53.538Z,7.45
2019-02-26T02:38:52.064Z,7.41
2019-02-26T02:39:52.064Z,7.39
2019-02-26T02:40:54.754Z,7.44
2019-02-26T02:41:54.837Z,7.60
2019-02-26T02:42:52.089Z,7.70
2019-02-26T02:43:52.089Z,7.89
2019-02-26T02:44:52.801Z,7.89
2019-02-26T02:45:53.115Z,7.95
2019-02-26T02:46:52.103Z,7.94
2019-02-26T02:47:55.025Z,7.94
2019-02-26T02:48:52.118Z,7.94
2019-02-26T02:49:52.124Z,7.89
2019-02-26T02:50:52.176Z,7.89
2019-02-26T02:51:52.133Z,7.89
2019-02-26T02:52:53.596Z,7.84
2019-02-26T02:53:54.101Z,7.88
2019-02-26T02:54:52.150Z,7.82
2019-02-26T02:55:52.155Z,7.84
2019-02-26T02:56:52.159Z,7.85
2019-02-26T02:57:54.962Z,7.77
2019-02-26T02:58:52.171Z,7.74
2019-02-26T02:59:54.325Z,7.81
2019-02-26T03:00:54.058Z,7.74
2019-02-26T03:01:54.820Z,7.62
2019-02-26T03:02:53.117Z,7.63
2019-02-26T03:03:53.846Z,7.62
2019-02-26T03:04:52.200Z,7.63
2019-02-26T03:05:52.200Z,7.67
2019-02-26T03:06:53.009Z,7.62
2019-02-26T03:07:54.052Z,7.70
2019-02-26T03:08:53.524Z,7.62
2019-02-26T03:09:52.229Z,7.57
2019-02-26T03:10:52.226Z,7.63
2019-02-26T03:11:53.051Z,7.55
2019-02-26T03:12:55.156Z,7.62
2019-02-26T03:13:53.880Z,7.57
2019-02-26T03:14:52.245Z,7.54
2019-02-26T03:15:53.548Z,7.52
2019-02-26T03:16:53.434Z,7.54
2019-02-26T03:17:52.266Z,7.52
2019-02-26T03:18:52.269Z,7.48
2019-02-26T03:19:52.275Z,7.42
2019-02-26T03:20:53.820Z,7.37
2019-02-26T03:21:52.584Z,7.33
2019-02-26T03:22:52.289Z,7.44
2019-02-26T03:23:52.292Z,7.41
2019-02-26T03:24:54.379Z,7.34
2019-02-26T03:25:54.865Z,7.33
2019-02-26T03:26:52.304Z,7.36
2019-02-26T03:27:52.311Z,7.27
2019-02-26T03:28:53.271Z,7.21
2019-02-26T03:29:53.369Z,7.23
2019-02-26T03:30:52.327Z,7.16
2019-02-26T03:31:55.236Z,7.09
2019-02-26T03:32:58.257Z,7.19
2019-02-26T03:33:59.960Z,7.15
2019-02-26T03:34:52.351Z,7.07
2019-02-26T03:35:52.352Z,7.09
2019-02-26T03:36:52.354Z,7.16
2019-02-26T03:37:57.264Z,7.21
2019-02-26T03:38:54.790Z,7.15
2019-02-26T03:39:54.585Z,7.32
2019-02-26T03:40:54.689Z,7.37
2019-02-26T03:41:53.596Z,7.36
2019-02-26T03:42:52.388Z,7.34
2019-02-26T03:43:54.297Z,7.36
2019-02-26T03:44:52.397Z,7.34
2019-02-26T03:45:52.414Z,7.34
2019-02-26T03:46:52.411Z,7.39
2019-02-26T03:47:55.293Z,7.32
2019-02-26T03:48:52.429Z,7.34
2019-02-26T03:49:52.450Z,7.29
2019-02-26T03:50:52.435Z,7.19
2019-02-26T03:51:52.428Z,7.16
2019-02-26T03:52:52.436Z,7.12
2019-02-26T03:53:52.444Z,7.30
2019-02-26T03:54:52.444Z,7.11
2019-02-26T03:55:52.447Z,7.11
2019-02-26T03:56:52.455Z,7.09
2019-02-26T03:57:54.381Z,7.08
2019-02-26T03:58:56.964Z,7.09
2019-02-26T03:59:52.466Z,7.08
2019-02-26T04:00:52.467Z,7.11
2019-02-26T04:01:52.477Z,7.01
2019-02-26T04:02:52.486Z,6.78
2019-02-26T04:03:54.668Z,6.61
2019-02-26T04:04:54.255Z,6.50
2019-02-26T04:05:52.499Z,6.33
2019-02-26T04:06:52.502Z,6.27
2019-02-26T04:07:55.603Z,6.08
2019-02-26T04:08:53.585Z,6.06
2019-02-26T04:09:53.829Z,5.92
2019-02-26T04:10:53.700Z,5.90
2019-02-26T04:11:53.416Z,5.88
2019-02-26T04:12:55.303Z,5.80
2019-02-26T04:13:54.560Z,5.80
2019-02-26T04:14:52.544Z,5.80
2019-02-26T04:15:54.093Z,5.74
2019-02-26T04:16:52.549Z,5.80
2019-02-26T04:17:52.555Z,5.85
2019-02-26T04:18:52.561Z,5.95
2019-02-26T04:19:52.563Z,5.87
2019-02-26T04:20:52.567Z,5.90
2019-02-26T04:21:52.569Z,5.88
2019-02-26T04:22:56.026Z,5.90
2019-02-26T04:23:52.582Z,5.90
2019-02-26T04:24:54.930Z,5.74
2019-02-26T04:25:54.058Z,5.88
2019-02-26T04:26:52.599Z,5.85
2019-02-26T04:27:52.599Z,5.85
2019-02-26T04:28:52.698Z,5.81
2019-02-26T04:29:52.615Z,5.73
2019-02-26T04:30:52.613Z,5.63
2019-02-26T04:31:54.539Z,5.63
2019-02-26T04:32:52.625Z,5.60
2019-02-26T04:33:53.713Z,5.63
2019-02-26T04:34:54.624Z,5.69
2019-02-26T04:35:55.410Z,5.80
2019-02-26T04:36:52.638Z,5.70
2019-02-26T04:37:53.246Z,5.70
2019-02-26T04:38:53.225Z,5.80
2019-02-26T04:39:52.652Z,5.87
2019-02-26T04:40:55.437Z,5.81
2019-02-26T04:41:52.661Z,5.87
2019-02-26T04:42:52.664Z,5.85
2019-02-26T04:43:54.896Z,5.96
2019-02-26T04:44:55.187Z,6.03
2019-02-26T04:45:52.677Z,6.06
2019-02-26T04:46:53.926Z,6.08
2019-02-26T04:47:56.978Z,5.99
2019-02-26T04:48:52.696Z,6.05
2019-02-26T04:49:54.430Z,6.06
2019-02-26T04:50:52.699Z,6.05
2019-02-26T04:51:52.706Z,6.14
2019-02-26T04:52:52.709Z,6.11
2019-02-26T04:53:54.159Z,6.02
2019-02-26T04:54:52.717Z,6.19
2019-02-26T04:55:52.719Z,6.28
2019-02-26T04:56:52.735Z,6.20
2019-02-26T04:57:54.040Z,6.24
2019-02-26T04:58:52.740Z,6.35
2019-02-26T04:59:52.746Z,6.39
2019-02-26T05:00:52.747Z,6.40
2019-02-26T05:01:54.992Z,6.43
2019-02-26T05:02:52.757Z,6.40
2019-02-26T05:03:52.761Z,6.46
2019-02-26T05:04:52.770Z,6.50
2019-02-26T05:05:55.995Z,6.50
2019-02-26T05:06:52.771Z,6.42
2019-02-26T05:07:52.779Z,6.39
2019-02-26T05:08:52.782Z,6.38
2019-02-26T05:09:55.865Z,6.48
2019-02-26T05:10:55.029Z,6.45
2019-02-26T05:11:52.799Z,6.54
2019-02-26T05:12:56.170Z,6.36
2019-02-26T05:13:52.804Z,6.40
2019-02-26T05:14:52.813Z,6.48
2019-02-26T05:15:52.807Z,6.57
2019-02-26T05:16:52.821Z,6.64
2019-02-26T05:17:52.824Z,6.61
2019-02-26T05:18:55.011Z,6.63
2019-02-26T05:19:52.834Z,6.71
2019-02-26T05:20:52.849Z,6.72
2019-02-26T05:21:53.622Z,6.73
2019-02-26T05:22:54.680Z,6.72
2019-02-26T05:23:55.021Z,6.75
2019-02-26T05:24:52.946Z,6.76
2019-02-26T05:25:52.865Z,6.54
2019-02-26T05:26:52.870Z,6.50
2019-02-26T05:27:52.868Z,6.54
2019-02-26T05:28:52.876Z,6.39
2019-02-26T05:29:54.763Z,6.45
2019-02-26T05:30:52.881Z,6.40
2019-02-26T05:31:55.435Z,6.39
2019-02-26T05:32:56.604Z,6.33
2019-02-26T05:33:55.348Z,6.27
2019-02-26T05:34:52.896Z,6.28
2019-02-26T05:36:52.915Z,6.13
2019-02-26T05:37:55.486Z,5.93
2019-02-26T05:38:54.640Z,5.75
2019-02-26T05:39:54.566Z,5.75
2019-02-26T05:40:55.321Z,5.65
2019-02-26T05:41:54.990Z,5.58
2019-02-26T05:42:53.349Z,5.66
2019-02-26T05:43:57.842Z,5.69
2019-02-26T05:44:54.524Z,5.66
2019-02-26T05:45:54.864Z,5.63
2019-02-26T05:46:54.226Z,5.75
2019-02-26T05:47:54.733Z,5.67
2019-02-26T05:48:52.969Z,5.73
2019-02-26T05:49:52.967Z,5.70
2019-02-26T05:50:52.963Z,5.67
2019-02-26T05:51:53.490Z,5.51
2019-02-26T05:52:57.611Z,5.62
2019-02-26T05:53:52.985Z,5.58
2019-02-26T05:54:52.985Z,5.47
2019-02-26T05:55:54.183Z,5.38
2019-02-26T05:56:52.992Z,5.38
2019-02-26T05:57:52.999Z,5.37
2019-02-26T05:58:53.005Z,5.30
2019-02-26T05:59:53.008Z,5.26
2019-02-26T06:00:53.006Z,5.20
2019-02-26T06:01:55.435Z,5.14
2019-02-26T06:02:53.018Z,5.22
2019-02-26T06:03:53.014Z,5.08
2019-02-26T06:04:53.056Z,5.04
2019-02-26T06:05:55.627Z,4.99
2019-02-26T06:06:55.605Z,5.04
2019-02-26T06:07:53.061Z,5.05
2019-02-26T06:08:55.232Z,5.12
2019-02-26T06:09:55.725Z,5.14
2019-02-26T06:10:53.056Z,5.02
2019-02-26T06:11:53.053Z,5.11
2019-02-26T06:12:53.067Z,5.04
2019-02-26T06:13:55.536Z,5.04
2019-02-26T06:14:54.157Z,5.01
2019-02-26T06:15:55.226Z,4.94
2019-02-26T06:16:55.424Z,5.06
2019-02-26T06:17:53.931Z,5.01
2019-02-26T06:18:54.443Z,5.08
2019-02-26T06:19:53.083Z,5.17
2019-02-26T06:20:53.618Z,5.23
2019-02-26T06:21:54.810Z,5.22
2019-02-26T06:22:53.100Z,5.24
2019-02-26T06:23:53.103Z,5.35
2019-02-26T06:24:57.287Z,5.38
2019-02-26T06:25:55.157Z,5.48
2019-02-26T06:26:53.123Z,5.44
2019-02-26T06:27:53.128Z,5.45
2019-02-26T06:28:53.121Z,5.32
2019-02-26T06:29:57.250Z,5.27
2019-02-26T06:30:55.044Z,5.27
2019-02-26T06:31:53.142Z,5.27
2019-02-26T06:32:53.139Z,5.30
2019-02-26T06:33:53.146Z,5.32
2019-02-26T06:34:53.163Z,5.33
2019-02-26T06:35:54.800Z,5.37
2019-02-26T06:36:53.308Z,5.29
2019-02-26T06:37:53.163Z,5.35
2019-02-26T06:38:54.164Z,5.40
2019-02-26T06:39:55.659Z,5.35
2019-02-26T06:40:53.173Z,5.37
2019-02-26T06:41:53.173Z,5.40
2019-02-26T06:42:53.185Z,5.44
2019-02-26T06:43:54.967Z,5.52
2019-02-26T06:44:53.189Z,5.49
2019-02-26T06:45:53.189Z,5.44
2019-02-26T06:46:53.197Z,5.52
2019-02-26T06:47:54.609Z,5.56
2019-02-26T06:48:53.203Z,5.55
2019-02-26T06:49:53.210Z,5.59
2019-02-26T06:50:55.177Z,5.60
2019-02-26T06:51:54.315Z,5.69
2019-02-26T06:52:53.222Z,5.63
2019-02-26T06:53:54.267Z,5.74
2019-02-26T06:54:56.889Z,5.77
2019-02-26T06:55:53.235Z,5.77
2019-02-26T06:56:53.260Z,5.83
2019-02-26T06:57:55.190Z,5.85
2019-02-26T06:58:53.248Z,5.90
2019-02-26T06:59:55.509Z,5.85
2019-02-26T07:00:55.368Z,5.84
2019-02-26T07:01:55.597Z,5.87
2019-02-26T07:02:53.264Z,5.90
2019-02-26T07:03:53.858Z,5.90
2019-02-26T07:04:53.273Z,5.87
2019-02-26T07:05:53.279Z,5.98
2019-02-26T07:06:55.220Z,5.98
2019-02-26T07:07:56.551Z,6.05
2019-02-26T07:08:53.579Z,6.06
2019-02-26T07:09:53.296Z,6.06
2019-02-26T07:10:53.303Z,6.11
2019-02-26T07:11:53.307Z,6.10
2019-02-26T07:12:53.313Z,6.08
2019-02-26T07:13:53.895Z,6.14
2019-02-26T07:14:55.345Z,6.24
2019-02-26T07:15:53.326Z,6.25
2019-02-26T07:16:53.326Z,6.30
2019-02-26T07:17:53.337Z,6.36
2019-02-26T07:18:53.332Z,6.54
2019-02-26T07:19:55.470Z,6.54
2019-02-26T07:20:57.251Z,6.57
2019-02-26T07:21:53.351Z,6.61
2019-02-26T07:22:53.360Z,6.69
2019-02-26T07:23:54.598Z,6.71
2019-02-26T07:24:54.011Z,6.68
2019-02-26T07:25:53.368Z,6.73
2019-02-26T07:26:53.381Z,6.78
2019-02-26T07:27:54.201Z,6.79
2019-02-26T07:28:53.381Z,6.90
2019-02-26T07:29:53.388Z,6.82
2019-02-26T07:30:53.393Z,6.90
2019-02-26T07:31:54.106Z,6.90
2019-02-26T07:32:53.403Z,6.90
2019-02-26T07:33:55.739Z,6.89
2019-02-26T07:34:53.415Z,6.89
2019-02-26T07:35:56.387Z,6.91
2019-02-26T07:36:53.414Z,6.90
2019-02-26T07:37:54.535Z,6.81
2019-02-26T07:38:56.012Z,6.68
2019-02-26T07:39:53.435Z,6.48
2019-02-26T07:40:54.316Z,6.45
2019-02-26T07:41:54.400Z,6.43
2019-02-26T07:42:53.449Z,6.46
2019-02-26T07:43:54.709Z,6.46
2019-02-26T07:44:53.462Z,6.53
2019-02-26T07:45:53.474Z,6.60
2019-02-26T07:46:53.472Z,6.65
2019-02-26T07:47:55.981Z,6.90
2019-02-26T07:48:53.962Z,7.01
2019-02-26T07:49:56.476Z,6.90
2019-02-26T07:50:53.507Z,6.94
2019-02-26T07:51:55.512Z,6.93
2019-02-26T07:52:55.250Z,7.01
2019-02-26T07:53:54.354Z,7.11
2019-02-26T07:54:53.546Z,7.07
2019-02-26T07:55:53.558Z,7.26
2019-02-26T07:56:55.111Z,7.32
2019-02-26T07:57:53.588Z,7.42
2019-02-26T07:58:56.924Z,7.54
2019-02-26T07:59:53.618Z,7.63
2019-02-26T08:00:53.611Z,7.70
2019-02-26T08:01:53.623Z,7.69
2019-02-26T08:02:56.389Z,7.71
2019-02-26T08:03:53.651Z,7.89
2019-02-26T08:04:53.659Z,8.02
2019-02-26T08:05:53.671Z,8.31
2019-02-26T08:06:56.270Z,8.80
2019-02-26T08:07:56.268Z,9.26
2019-02-26T08:08:53.723Z,9.62
2019-02-26T08:09:53.725Z,9.96
2019-02-26T08:10:53.734Z,10.35
2019-02-26T08:11:53.747Z,10.62
2019-02-26T08:12:53.759Z,10.93
2019-02-26T08:13:54.319Z,11.06
2019-02-26T08:14:53.785Z,11.33
2019-02-26T08:15:55.137Z,11.51
2019-02-26T08:16:56.067Z,11.72
2019-02-26T08:17:57.554Z,11.87
2019-02-26T08:18:54.726Z,11.88
2019-02-26T08:20:15.072Z,12.21
2019-02-26T08:20:56.887Z,12.22
2019-02-26T08:21:55.016Z,12.40
2019-02-26T08:22:54.715Z,12.54
2019-02-26T08:23:53.917Z,12.70
2019-02-26T08:24:55.524Z,12.81
2019-02-26T08:25:55.654Z,12.79
2019-02-26T08:26:53.967Z,12.89
2019-02-26T08:27:55.970Z,13.01
2019-02-26T08:28:53.991Z,13.12
2019-02-26T08:29:56.023Z,13.25
2019-02-26T08:30:55.235Z,13.31
2019-02-26T08:31:54.590Z,13.46
2019-02-26T08:32:56.107Z,13.50
2019-02-26T08:33:54.072Z,13.69
2019-02-26T08:34:54.099Z,13.83
2019-02-26T08:35:56.145Z,14.01
2019-02-26T08:36:54.116Z,14.09
2019-02-26T08:37:54.133Z,14.19
2019-02-26T08:38:56.488Z,14.36
2019-02-26T08:39:57.421Z,14.45
2019-02-26T08:40:54.191Z,14.48
2019-02-26T08:41:54.200Z,14.66
2019-02-26T08:42:54.212Z,14.75
2019-02-26T08:43:56.299Z,14.82
2019-02-26T08:44:55.906Z,14.83
2019-02-26T08:45:54.259Z,14.86
2019-02-26T08:46:54.279Z,14.86
2019-02-26T08:47:54.298Z,14.91
2019-02-26T08:48:54.312Z,15.05
2019-02-26T08:49:54.325Z,15.04
2019-02-26T08:50:55.836Z,14.45
2019-02-26T08:51:54.352Z,13.50
2019-02-26T08:52:56.241Z,12.80
2019-02-26T08:53:55.320Z,12.44
2019-02-26T08:54:54.407Z,12.22
2019-02-26T08:55:56.278Z,12.00
2019-02-26T08:56:54.463Z,11.97
2019-02-26T08:57:56.404Z,12.03
2019-02-26T08:58:54.472Z,11.87
2019-02-26T08:59:54.711Z,12.05
2019-02-26T09:00:54.503Z,12.04
2019-02-26T09:01:54.522Z,12.03
2019-02-26T09:02:56.710Z,12.00
2019-02-26T09:03:55.825Z,12.23
2019-02-26T09:04:54.560Z,12.38
2019-02-26T09:05:57.013Z,12.49
2019-02-26T09:06:55.451Z,12.66
2019-02-26T09:07:54.622Z,12.63
2019-02-26T09:08:55.532Z,12.79
2019-02-26T09:09:57.279Z,12.92
2019-02-26T09:10:54.673Z,13.10
2019-02-26T09:11:55.911Z,13.12
2019-02-26T09:12:54.706Z,13.19
2019-02-26T09:13:56.335Z,13.17
2019-02-26T09:14:54.739Z,13.39
2019-02-26T09:15:55.610Z,13.46
2019-02-26T09:16:56.898Z,13.43
2019-02-26T09:17:54.788Z,13.41
2019-02-26T09:18:54.816Z,13.65
2019-02-26T09:20:06.437Z,13.90
2019-02-26T09:20:54.838Z,14.34
2019-02-26T09:21:54.917Z,14.59
2019-02-26T09:22:56.477Z,15.11
2019-02-26T09:23:56.915Z,15.60
2019-02-26T09:24:56.840Z,16.22
2019-02-26T09:25:57.173Z,16.69
2019-02-26T09:26:57.493Z,16.90
2019-02-26T09:27:54.956Z,16.82
2019-02-26T09:28:57.081Z,17.20
2019-02-26T09:29:54.995Z,17.86
2019-02-26T09:30:56.301Z,18.46
2019-02-26T09:31:55.026Z,19.07
2019-02-26T09:32:55.044Z,19.47
2019-02-26T09:33:55.057Z,19.82
2019-02-26T09:34:56.848Z,20.13
2019-02-26T09:35:56.729Z,19.64
2019-02-26T09:36:55.543Z,19.58
2019-02-26T09:37:58.392Z,19.89
2019-02-26T09:38:55.146Z,20.23
2019-02-26T09:39:57.370Z,20.66
2019-02-26T09:40:56.967Z,20.96
2019-02-26T09:41:57.012Z,21.19
2019-02-26T09:42:58.152Z,21.43
2019-02-26T09:43:55.238Z,21.59
2019-02-26T09:44:55.936Z,21.81
2019-02-26T09:45:55.266Z,21.85
2019-02-26T09:46:57.273Z,21.98
2019-02-26T09:47:57.774Z,22.15
2019-02-26T09:48:55.325Z,22.27
2019-02-26T09:49:56.181Z,22.44
2019-02-26T09:50:55.357Z,22.52
2019-02-26T09:51:56.836Z,22.64
2019-02-26T09:52:58.239Z,22.78
2019-02-26T09:53:56.592Z,23.00
2019-02-26T09:54:55.448Z,23.16
2019-02-26T09:55:55.448Z,23.22
2019-02-26T09:56:55.473Z,23.26
2019-02-26T09:57:55.477Z,23.41
2019-02-26T09:58:55.498Z,23.52
2019-02-26T09:59:58.162Z,23.74
2019-02-26T10:00:55.534Z,23.78
2019-02-26T10:01:56.526Z,23.82
2019-02-26T10:02:55.579Z,23.86
2019-02-26T10:03:55.969Z,23.93
2019-02-26T10:04:55.618Z,24.14
2019-02-26T10:05:57.739Z,24.33
2019-02-26T10:06:55.639Z,24.33
2019-02-26T10:07:58.022Z,24.51
2019-02-26T10:08:56.166Z,24.60
2019-02-26T10:09:55.706Z,24.80
2019-02-26T10:10:57.651Z,24.86
2019-02-26T10:11:55.735Z,24.92
2019-02-26T10:12:57.323Z,25.01
2019-02-26T10:13:55.771Z,25.07
2019-02-26T10:14:59.589Z,25.22
2019-02-26T10:15:58.255Z,25.01
2019-02-26T10:16:57.008Z,25.22
2019-02-26T10:17:58.310Z,25.31
2019-02-26T10:18:56.805Z,25.42
2019-02-26T10:19:56.968Z,25.56
2019-02-26T10:20:56.009Z,25.51
2019-02-26T10:21:57.274Z,25.75
2019-02-26T10:22:57.815Z,25.83
2019-02-26T10:23:56.709Z,26.03
2019-02-26T10:24:56.000Z,26.17
2019-02-26T10:25:57.817Z,26.13
2019-02-26T10:26:58.659Z,26.16
2019-02-26T10:27:56.019Z,26.12
2019-02-26T10:28:59.076Z,26.17
2019-02-26T10:29:56.051Z,26.28
2019-02-26T10:30:57.009Z,26.38
2019-02-26T10:31:56.803Z,26.49
2019-02-26T10:32:56.116Z,26.59
2019-02-26T10:33:56.144Z,26.75
2019-02-26T10:34:56.152Z,26.88
2019-02-26T10:35:56.168Z,26.97
2019-02-26T10:36:56.188Z,27.03
2019-02-26T10:37:57.056Z,27.08
2019-02-26T10:38:57.869Z,26.98
2019-02-26T10:39:56.261Z,26.98
2019-02-26T10:40:58.845Z,26.98
2019-02-26T10:41:56.285Z,27.25
2019-02-26T10:42:56.299Z,27.62
2019-02-26T10:43:56.331Z,27.74
2019-02-26T10:44:56.510Z,27.93
2019-02-26T10:45:56.359Z,28.11
2019-02-26T10:46:58.330Z,28.24
2019-02-26T10:47:58.749Z,28.27
2019-02-26T10:48:56.428Z,28.18
2019-02-26T10:49:56.547Z,28.36
2019-02-26T10:50:56.554Z,28.48
2019-02-26T10:51:57.738Z,28.70
2019-02-26T10:53:01.421Z,28.88
2019-02-26T10:53:57.530Z,29.03
2019-02-26T10:54:56.530Z,29.07
2019-02-26T10:55:56.544Z,29.11
2019-02-26T10:56:57.420Z,29.57
2019-02-26T10:57:58.613Z,29.79
2019-02-26T10:59:01.937Z,30.08
2019-02-26T10:59:59.175Z,30.25
2019-02-26T11:00:59.405Z,30.46
2019-02-26T11:01:58.422Z,30.64
2019-02-26T11:02:56.685Z,30.51
2019-02-26T11:03:56.721Z,30.57
2019-02-26T11:04:56.723Z,30.51
2019-02-26T11:05:56.734Z,30.60
2019-02-26T11:06:56.747Z,30.82
2019-02-26T11:07:59.794Z,30.88
2019-02-26T11:09:01.121Z,30.66
2019-02-26T11:09:58.905Z,30.36
2019-02-26T11:10:56.827Z,30.30
2019-02-26T11:11:58.362Z,30.56
2019-02-26T11:12:59.504Z,30.48
2019-02-26T11:13:56.880Z,30.45
2019-02-26T11:14:58.636Z,30.56
2019-02-26T11:15:59.835Z,30.45
2019-02-26T11:16:56.947Z,30.36
2019-02-26T11:17:56.967Z,30.51
2019-02-26T11:18:58.807Z,30.82
2019-02-26T11:19:58.519Z,30.82
2019-02-26T11:20:59.291Z,31.23
2019-02-26T11:21:58.633Z,30.16
2019-02-26T11:22:57.083Z,29.26
2019-02-26T11:23:58.505Z,29.23
2019-02-26T11:24:58.557Z,29.52
2019-02-26T11:25:57.129Z,29.99
2019-02-26T11:26:57.181Z,30.57
2019-02-26T11:27:57.168Z,30.98
2019-02-26T11:28:57.182Z,31.28
2019-02-26T11:29:59.470Z,31.49
2019-02-26T11:30:57.222Z,31.65
2019-02-26T11:31:57.239Z,31.57
2019-02-26T11:33:02.150Z,31.67
2019-02-26T11:34:00.109Z,31.62
2019-02-26T11:34:58.018Z,31.40
2019-02-26T11:35:59.538Z,31.35
2019-02-26T11:36:58.493Z,31.31
2019-02-26T11:37:58.118Z,31.04
2019-02-26T11:38:59.909Z,30.44
2019-02-26T11:39:58.281Z,30.53
2019-02-26T11:40:57.427Z,31.28
2019-02-26T11:42:00.722Z,31.79
2019-02-26T11:42:59.802Z,32.49
2019-02-26T11:43:57.480Z,32.77
2019-02-26T11:44:57.508Z,32.81
2019-02-26T11:45:59.156Z,32.85
2019-02-26T11:46:58.246Z,32.69
2019-02-26T11:48:00.368Z,32.77
2019-02-26T11:48:57.679Z,32.61
2019-02-26T11:49:59.516Z,32.78
2019-02-26T11:51:00.756Z,32.43
2019-02-26T11:51:57.639Z,32.28
2019-02-26T11:52:57.660Z,32.47
2019-02-26T11:54:00.125Z,32.81
2019-02-26T11:54:58.825Z,33.14
2019-02-26T11:55:59.909Z,33.52
2019-02-26T11:56:57.738Z,33.24
2019-02-26T11:57:57.762Z,33.18
2019-02-26T11:58:57.779Z,33.44
2019-02-26T11:59:59.422Z,33.55
2019-02-26T12:01:59.092Z,33.55
2019-02-26T12:02:57.873Z,33.62
2019-02-26T12:04:02.511Z,33.84
2019-02-26T12:04:59.887Z,34.24
2019-02-26T12:06:00.554Z,32.77
2019-02-26T12:06:58.499Z,32.05
2019-02-26T12:07:58.825Z,31.19
2019-02-26T12:08:57.982Z,30.42
2019-02-26T12:10:01.878Z,29.92
2019-02-26T12:11:03.343Z,29.58
2019-02-26T12:11:58.525Z,29.95
2019-02-26T12:13:00.035Z,31.04
2019-02-26T12:13:58.081Z,32.06
2019-02-26T12:14:58.107Z,32.90
2019-02-26T12:15:58.134Z,33.52
2019-02-26T12:16:58.151Z,33.38
2019-02-26T12:17:58.771Z,32.51
2019-02-26T12:18:58.922Z,32.77
2019-02-26T12:20:00.306Z,32.73
2019-02-26T12:21:00.007Z,31.54
2019-02-26T12:22:01.283Z,30.76
2019-02-26T12:22:58.261Z,29.84
2019-02-26T12:24:00.577Z,29.32
2019-02-26T12:24:59.984Z,29.62
2019-02-26T12:26:01.020Z,30.15
2019-02-26T12:26:58.353Z,31.49
2019-02-26T12:28:00.237Z,32.39
2019-02-26T12:28:59.580Z,33.07
2019-02-26T12:29:58.419Z,33.75
2019-02-26T12:31:00.768Z,34.19
2019-02-26T12:32:01.067Z,34.46
2019-02-26T12:32:58.483Z,34.55
2019-02-26T12:33:58.499Z,34.52
2019-02-26T12:34:58.525Z,34.65
2019-02-26T12:35:59.522Z,34.73
2019-02-26T12:37:02.069Z,34.67
2019-02-26T12:38:59.936Z,35.18
2019-02-26T12:39:58.622Z,35.29
2019-02-26T12:40:58.642Z,34.56
2019-02-26T12:41:58.669Z,34.83
2019-02-26T12:42:58.686Z,34.80
2019-02-26T12:44:00.849Z,34.95
2019-02-26T12:45:01.847Z,35.12
2019-02-26T12:45:59.425Z,35.27
2019-02-26T12:47:00.487Z,35.96
2019-02-26T12:47:58.788Z,36.33
2019-02-26T12:48:58.811Z,36.53
2019-02-26T12:50:01.984Z,36.35
2019-02-26T12:51:01.467Z,35.62
2019-02-26T12:51:59.928Z,35.24
2019-02-26T12:52:58.904Z,35.40
2019-02-26T12:54:00.539Z,35.77
2019-02-26T12:55:00.687Z,35.50
2019-02-26T12:56:01.975Z,35.12
2019-02-26T12:57:00.638Z,35.22
2019-02-26T12:57:59.626Z,33.14
2019-02-26T12:58:59.021Z,32.80
2019-02-26T12:59:59.042Z,33.31
2019-02-26T13:00:59.062Z,33.52
2019-02-26T13:01:59.083Z,32.87
2019-02-26T13:02:59.101Z,33.09
2019-02-26T13:03:59.125Z,33.66
2019-02-26T13:04:59.150Z,34.42
2019-02-26T13:05:59.169Z,34.98
2019-02-26T13:06:59.188Z,35.05
2019-02-26T13:07:59.220Z,35.05
2019-02-26T13:08:59.232Z,35.15
2019-02-26T13:10:02.745Z,35.24
2019-02-26T13:10:59.271Z,35.81
2019-02-26T13:12:02.378Z,36.11
2019-02-26T13:13:02.990Z,36.27
2019-02-26T13:13:59.340Z,36.30